sensor_id;sensor_type;location;lat;lon;timestamp;P1;durP1;ratioP1;P2;durP2;ratioP2
53519;SDS011;39397;53.204;5.778;2023-03-24T00:01:10;14.38;;;5.28;;
53519;SDS011;39397;53.204;5.778;2023-03-24T00:03:36;17.45;;;6.45;;
53519;SDS011;39397;53.204;5.778;2023-03-24T00:06:05;13.52;;;5.68;;
53519;SDS011;39397;53.204;5.778;2023-03-24T00:08:33;11.88;;;4.85;;
53519;SDS011;39397;53.204;5.778;2023-03-24T00:11:02;11.73;;;5.20;;
53519;SDS011;39397;53.204;5.778;2023-03-24T00:13:30;14.27;;;5.93;;
53519;SDS011;39397;53.204;5.778;2023-03-24T00:16:06;14.65;;;6.05;;
53519;SDS011;39397;53.204;5.778;2023-03-24T00:18:34;17.00;;;6.15;;
53519;SDS011;39397;53.204;5.778;2023-03-24T00:21:01;10.73;;;5.25;;
53519;SDS011;39397;53.204;5.778;2023-03-24T00:23:28;17.17;;;6.10;;
53519;SDS011;39397;53.204;5.778;2023-03-24T00:26:01;13.85;;;5.93;;
53519;SDS011;39397;53.204;5.778;2023-03-24T00:28:33;13.77;;;6.13;;
53519;SDS011;39397;53.204;5.778;2023-03-24T00:31:01;13.18;;;6.07;;
53519;SDS011;39397;53.204;5.778;2023-03-24T00:33:29;11.73;;;5.75;;
53519;SDS011;39397;53.204;5.778;2023-03-24T00:36:02;16.13;;;5.50;;
53519;SDS011;39397;53.204;5.778;2023-03-24T00:38:31;13.13;;;5.32;;
53519;SDS011;39397;53.204;5.778;2023-03-24T00:41:01;12.02;;;5.88;;
53519;SDS011;39397;53.204;5.778;2023-03-24T00:43:30;12.48;;;5.55;;
53519;SDS011;39397;53.204;5.778;2023-03-24T00:45:59;10.48;;;5.70;;
53519;SDS011;39397;53.204;5.778;2023-03-24T00:48:28;10.82;;;5.88;;
53519;SDS011;39397;53.204;5.778;2023-03-24T00:50:55;13.85;;;6.05;;
53519;SDS011;39397;53.204;5.778;2023-03-24T00:53:21;11.23;;;5.63;;
53519;SDS011;39397;53.204;5.778;2023-03-24T00:55:50;10.38;;;5.05;;
53519;SDS011;39397;53.204;5.778;2023-03-24T00:58:16;12.18;;;5.68;;
53519;SDS011;39397;53.204;5.778;2023-03-24T01:00:44;11.32;;;4.68;;
53519;SDS011;39397;53.204;5.778;2023-03-24T01:03:10;12.32;;;5.57;;
53519;SDS011;39397;53.204;5.778;2023-03-24T01:05:36;11.27;;;4.85;;
53519;SDS011;39397;53.204;5.778;2023-03-24T01:08:03;9.73;;;4.97;;
53519;SDS011;39397;53.204;5.778;2023-03-24T01:10:31;10.40;;;5.30;;
53519;SDS011;39397;53.204;5.778;2023-03-24T01:12:59;12.40;;;5.15;;
53519;SDS011;39397;53.204;5.778;2023-03-24T01:15:31;10.52;;;5.25;;
53519;SDS011;39397;53.204;5.778;2023-03-24T01:17:58;10.75;;;5.18;;
53519;SDS011;39397;53.204;5.778;2023-03-24T01:20:26;9.45;;;5.05;;
53519;SDS011;39397;53.204;5.778;2023-03-24T01:22:57;11.25;;;5.22;;
53519;SDS011;39397;53.204;5.778;2023-03-24T01:25:24;14.65;;;6.07;;
53519;SDS011;39397;53.204;5.778;2023-03-24T01:27:50;9.55;;;4.75;;
53519;SDS011;39397;53.204;5.778;2023-03-24T01:30:19;10.60;;;5.22;;
53519;SDS011;39397;53.204;5.778;2023-03-24T01:32:50;8.60;;;4.82;;
53519;SDS011;39397;53.204;5.778;2023-03-24T01:35:18;8.88;;;4.82;;
53519;SDS011;39397;53.204;5.778;2023-03-24T01:37:44;10.15;;;5.63;;
53519;SDS011;39397;53.204;5.778;2023-03-24T01:40:14;9.65;;;5.30;;
53519;SDS011;39397;53.204;5.778;2023-03-24T01:42:46;11.50;;;5.60;;
53519;SDS011;39397;53.204;5.778;2023-03-24T01:47:59;11.00;;;5.63;;
53519;SDS011;39397;53.204;5.778;2023-03-24T01:50:28;11.30;;;5.20;;
53519;SDS011;39397;53.204;5.778;2023-03-24T01:52:55;8.55;;;4.80;;
53519;SDS011;39397;53.204;5.778;2023-03-24T01:55:21;9.27;;;6.10;;
53519;SDS011;39397;53.204;5.778;2023-03-24T01:57:49;8.75;;;5.47;;
53519;SDS011;39397;53.204;5.778;2023-03-24T02:00:18;9.95;;;6.00;;
53519;SDS011;39397;53.204;5.778;2023-03-24T02:02:46;11.38;;;6.55;;
53519;SDS011;39397;53.204;5.778;2023-03-24T02:05:25;10.30;;;5.50;;
53519;SDS011;39397;53.204;5.778;2023-03-24T02:08:09;9.95;;;5.97;;
53519;SDS011;39397;53.204;5.778;2023-03-24T02:10:46;12.85;;;6.00;;
53519;SDS011;39397;53.204;5.778;2023-03-24T02:13:13;9.70;;;5.65;;
53519;SDS011;39397;53.204;5.778;2023-03-24T02:35:03;11.07;;;6.30;;
53519;SDS011;39397;53.204;5.778;2023-03-24T02:40:41;9.68;;;5.72;;
53519;SDS011;39397;53.204;5.778;2023-03-24T02:43:28;8.32;;;5.68;;
53519;SDS011;39397;53.204;5.778;2023-03-24T02:51:36;7.20;;;2.50;;
53519;SDS011;39397;53.204;5.778;2023-03-24T02:54:15;7.38;;;2.53;;
53519;SDS011;39397;53.204;5.778;2023-03-24T03:01:01;8.27;;;2.55;;
53519;SDS011;39397;53.204;5.778;2023-03-24T03:03:18;9.18;;;1.98;;
53519;SDS011;39397;53.204;5.778;2023-03-24T03:06:17;9.57;;;1.98;;
53519;SDS011;39397;53.204;5.778;2023-03-24T03:08:50;10.65;;;1.90;;
53519;SDS011;39397;53.204;5.778;2023-03-24T03:11:16;9.35;;;2.00;;
53519;SDS011;39397;53.204;5.778;2023-03-24T03:13:50;8.85;;;2.47;;
53519;SDS011;39397;53.204;5.778;2023-03-24T03:16:44;10.05;;;1.95;;
53519;SDS011;39397;53.204;5.778;2023-03-24T03:19:15;7.50;;;1.58;;
53519;SDS011;39397;53.204;5.778;2023-03-24T03:21:45;9.20;;;1.92;;
53519;SDS011;39397;53.204;5.778;2023-03-24T03:24:24;8.90;;;1.80;;
53519;SDS011;39397;53.204;5.778;2023-03-24T03:27:02;12.75;;;2.00;;
53519;SDS011;39397;53.204;5.778;2023-03-24T03:29:38;13.52;;;2.33;;
53519;SDS011;39397;53.204;5.778;2023-03-24T03:32:08;10.43;;;2.45;;
53519;SDS011;39397;53.204;5.778;2023-03-24T03:34:43;14.40;;;2.00;;
53519;SDS011;39397;53.204;5.778;2023-03-24T03:40:46;12.05;;;1.77;;
53519;SDS011;39397;53.204;5.778;2023-03-24T03:43:16;12.10;;;2.80;;
53519;SDS011;39397;53.204;5.778;2023-03-24T03:45:42;13.32;;;2.80;;
53519;SDS011;39397;53.204;5.778;2023-03-24T03:48:08;17.90;;;2.75;;
53519;SDS011;39397;53.204;5.778;2023-03-24T03:50:34;8.43;;;2.33;;
53519;SDS011;39397;53.204;5.778;2023-03-24T03:53:02;12.07;;;2.03;;
53519;SDS011;39397;53.204;5.778;2023-03-24T03:55:29;13.68;;;2.58;;
53519;SDS011;39397;53.204;5.778;2023-03-24T03:57:55;19.55;;;2.40;;
53519;SDS011;39397;53.204;5.778;2023-03-24T04:00:21;13.30;;;3.03;;
53519;SDS011;39397;53.204;5.778;2023-03-24T04:05:27;21.15;;;3.13;;
53519;SDS011;39397;53.204;5.778;2023-03-24T04:27:30;12.52;;;2.40;;
53519;SDS011;39397;53.204;5.778;2023-03-24T04:32:48;13.27;;;2.38;;
53519;SDS011;39397;53.204;5.778;2023-03-24T04:35:39;14.90;;;2.25;;
53519;SDS011;39397;53.204;5.778;2023-03-24T04:38:12;13.25;;;2.80;;
53519;SDS011;39397;53.204;5.778;2023-03-24T04:40:47;16.25;;;3.65;;
53519;SDS011;39397;53.204;5.778;2023-03-24T04:43:19;17.15;;;2.65;;
53519;SDS011;39397;53.204;5.778;2023-03-24T04:45:49;12.43;;;3.22;;
53519;SDS011;39397;53.204;5.778;2023-03-24T04:48:21;14.50;;;3.67;;
53519;SDS011;39397;53.204;5.778;2023-03-24T04:50:53;17.58;;;3.50;;
53519;SDS011;39397;53.204;5.778;2023-03-24T04:53:28;19.25;;;3.55;;
53519;SDS011;39397;53.204;5.778;2023-03-24T04:55:59;19.58;;;3.35;;
53519;SDS011;39397;53.204;5.778;2023-03-24T04:58:47;17.73;;;3.22;;
53519;SDS011;39397;53.204;5.778;2023-03-24T05:01:14;22.05;;;3.65;;
53519;SDS011;39397;53.204;5.778;2023-03-24T05:03:41;15.68;;;2.95;;
53519;SDS011;39397;53.204;5.778;2023-03-24T05:06:10;16.05;;;3.63;;
53519;SDS011;39397;53.204;5.778;2023-03-24T05:08:37;16.08;;;2.88;;
53519;SDS011;39397;53.204;5.778;2023-03-24T05:11:03;17.58;;;3.65;;
53519;SDS011;39397;53.204;5.778;2023-03-24T05:13:29;16.70;;;2.80;;
53519;SDS011;39397;53.204;5.778;2023-03-24T05:15:55;20.35;;;2.92;;
53519;SDS011;39397;53.204;5.778;2023-03-24T05:18:22;18.35;;;2.95;;
53519;SDS011;39397;53.204;5.778;2023-03-24T05:20:48;13.52;;;2.90;;
53519;SDS011;39397;53.204;5.778;2023-03-24T05:23:14;19.65;;;3.40;;
53519;SDS011;39397;53.204;5.778;2023-03-24T05:25:40;17.35;;;4.00;;
53519;SDS011;39397;53.204;5.778;2023-03-24T05:28:09;16.25;;;2.95;;
53519;SDS011;39397;53.204;5.778;2023-03-24T05:30:35;17.42;;;3.47;;
53519;SDS011;39397;53.204;5.778;2023-03-24T05:33:01;14.65;;;2.80;;
53519;SDS011;39397;53.204;5.778;2023-03-24T05:35:27;14.32;;;2.92;;
53519;SDS011;39397;53.204;5.778;2023-03-24T05:37:52;14.93;;;3.10;;
53519;SDS011;39397;53.204;5.778;2023-03-24T05:40:18;11.63;;;3.15;;
53519;SDS011;39397;53.204;5.778;2023-03-24T05:42:47;13.52;;;2.45;;
53519;SDS011;39397;53.204;5.778;2023-03-24T05:45:16;21.05;;;2.67;;
53519;SDS011;39397;53.204;5.778;2023-03-24T05:47:42;14.18;;;2.50;;
53519;SDS011;39397;53.204;5.778;2023-03-24T05:50:08;14.32;;;2.90;;
53519;SDS011;39397;53.204;5.778;2023-03-24T05:52:40;17.35;;;2.42;;
53519;SDS011;39397;53.204;5.778;2023-03-24T05:55:06;17.70;;;2.92;;
53519;SDS011;39397;53.204;5.778;2023-03-24T05:57:33;12.27;;;2.28;;
53519;SDS011;39397;53.204;5.778;2023-03-24T06:00:01;14.05;;;3.00;;
53519;SDS011;39397;53.204;5.778;2023-03-24T06:02:35;12.60;;;2.78;;
53519;SDS011;39397;53.204;5.778;2023-03-24T06:05:01;15.15;;;3.15;;
53519;SDS011;39397;53.204;5.778;2023-03-24T06:07:29;18.30;;;2.63;;
53519;SDS011;39397;53.204;5.778;2023-03-24T06:09:56;18.27;;;2.78;;
53519;SDS011;39397;53.204;5.778;2023-03-24T06:12:26;13.00;;;2.67;;
53519;SDS011;39397;53.204;5.778;2023-03-24T06:14:54;13.77;;;2.42;;
53519;SDS011;39397;53.204;5.778;2023-03-24T06:17:20;16.73;;;2.50;;
53519;SDS011;39397;53.204;5.778;2023-03-24T06:19:46;15.10;;;2.47;;
53519;SDS011;39397;53.204;5.778;2023-03-24T06:22:16;16.60;;;2.85;;
53519;SDS011;39397;53.204;5.778;2023-03-24T06:24:45;15.68;;;3.03;;
53519;SDS011;39397;53.204;5.778;2023-03-24T06:27:15;14.80;;;2.60;;
53519;SDS011;39397;53.204;5.778;2023-03-24T06:29:45;16.60;;;3.35;;
53519;SDS011;39397;53.204;5.778;2023-03-24T06:32:13;14.98;;;3.30;;
53519;SDS011;39397;53.204;5.778;2023-03-24T06:34:42;11.90;;;3.08;;
53519;SDS011;39397;53.204;5.778;2023-03-24T06:37:08;18.08;;;2.85;;
53519;SDS011;39397;53.204;5.778;2023-03-24T06:39:34;12.88;;;3.05;;
53519;SDS011;39397;53.204;5.778;2023-03-24T06:42:00;11.82;;;2.33;;
53519;SDS011;39397;53.204;5.778;2023-03-24T06:44:26;16.10;;;3.58;;
53519;SDS011;39397;53.204;5.778;2023-03-24T06:46:52;19.05;;;3.53;;
53519;SDS011;39397;53.204;5.778;2023-03-24T06:49:18;18.02;;;3.63;;
53519;SDS011;39397;53.204;5.778;2023-03-24T06:51:43;24.60;;;3.45;;
53519;SDS011;39397;53.204;5.778;2023-03-24T06:54:12;21.70;;;2.42;;
53519;SDS011;39397;53.204;5.778;2023-03-24T06:56:38;20.40;;;3.97;;
53519;SDS011;39397;53.204;5.778;2023-03-24T06:59:11;16.40;;;4.25;;
53519;SDS011;39397;53.204;5.778;2023-03-24T07:01:37;15.85;;;2.80;;
53519;SDS011;39397;53.204;5.778;2023-03-24T07:04:03;16.75;;;3.13;;
53519;SDS011;39397;53.204;5.778;2023-03-24T07:06:30;19.48;;;3.22;;
53519;SDS011;39397;53.204;5.778;2023-03-24T07:08:56;19.55;;;3.80;;
53519;SDS011;39397;53.204;5.778;2023-03-24T07:11:22;24.13;;;3.42;;
53519;SDS011;39397;53.204;5.778;2023-03-24T07:13:48;22.80;;;4.38;;
53519;SDS011;39397;53.204;5.778;2023-03-24T07:16:14;20.65;;;4.03;;
53519;SDS011;39397;53.204;5.778;2023-03-24T07:18:40;17.27;;;3.50;;
53519;SDS011;39397;53.204;5.778;2023-03-24T07:21:06;16.55;;;3.58;;
53519;SDS011;39397;53.204;5.778;2023-03-24T07:23:32;15.18;;;2.63;;
53519;SDS011;39397;53.204;5.778;2023-03-24T07:25:58;16.83;;;2.88;;
53519;SDS011;39397;53.204;5.778;2023-03-24T07:28:24;21.23;;;3.78;;
53519;SDS011;39397;53.204;5.778;2023-03-24T07:30:50;23.92;;;4.00;;
53519;SDS011;39397;53.204;5.778;2023-03-24T07:33:16;21.65;;;3.28;;
53519;SDS011;39397;53.204;5.778;2023-03-24T07:35:42;24.58;;;3.40;;
53519;SDS011;39397;53.204;5.778;2023-03-24T07:38:07;22.85;;;3.95;;
53519;SDS011;39397;53.204;5.778;2023-03-24T07:40:34;29.85;;;4.57;;
53519;SDS011;39397;53.204;5.778;2023-03-24T07:43:01;20.77;;;3.40;;
53519;SDS011;39397;53.204;5.778;2023-03-24T07:45:30;24.08;;;3.55;;
53519;SDS011;39397;53.204;5.778;2023-03-24T07:47:56;26.10;;;4.35;;
53519;SDS011;39397;53.204;5.778;2023-03-24T07:50:26;23.02;;;4.03;;
53519;SDS011;39397;53.204;5.778;2023-03-24T07:52:53;28.23;;;4.63;;
53519;SDS011;39397;53.204;5.778;2023-03-24T07:55:19;23.17;;;3.35;;
53519;SDS011;39397;53.204;5.778;2023-03-24T07:57:45;16.50;;;3.50;;
53519;SDS011;39397;53.204;5.778;2023-03-24T08:00:12;23.83;;;5.07;;
53519;SDS011;39397;53.204;5.778;2023-03-24T08:02:49;20.50;;;3.50;;
53519;SDS011;39397;53.204;5.778;2023-03-24T08:05:16;14.80;;;3.13;;
53519;SDS011;39397;53.204;5.778;2023-03-24T08:07:47;23.17;;;3.28;;
53519;SDS011;39397;53.204;5.778;2023-03-24T08:10:18;27.13;;;4.20;;
53519;SDS011;39397;53.204;5.778;2023-03-24T08:12:45;22.35;;;5.43;;
53519;SDS011;39397;53.204;5.778;2023-03-24T08:15:11;22.48;;;4.53;;
53519;SDS011;39397;53.204;5.778;2023-03-24T08:17:38;23.35;;;4.55;;
53519;SDS011;39397;53.204;5.778;2023-03-24T08:20:05;22.63;;;4.13;;
53519;SDS011;39397;53.204;5.778;2023-03-24T08:22:33;27.70;;;5.80;;
53519;SDS011;39397;53.204;5.778;2023-03-24T08:25:03;27.13;;;3.63;;
53519;SDS011;39397;53.204;5.778;2023-03-24T08:27:30;23.30;;;4.53;;
53519;SDS011;39397;53.204;5.778;2023-03-24T08:29:56;21.25;;;4.13;;
53519;SDS011;39397;53.204;5.778;2023-03-24T08:32:22;20.45;;;3.95;;
53519;SDS011;39397;53.204;5.778;2023-03-24T08:34:48;19.95;;;4.10;;
53519;SDS011;39397;53.204;5.778;2023-03-24T08:37:13;22.45;;;4.22;;
53519;SDS011;39397;53.204;5.778;2023-03-24T08:39:39;16.33;;;3.40;;
53519;SDS011;39397;53.204;5.778;2023-03-24T08:42:05;25.08;;;3.75;;
53519;SDS011;39397;53.204;5.778;2023-03-24T08:44:30;16.65;;;2.80;;
53519;SDS011;39397;53.204;5.778;2023-03-24T08:46:56;20.25;;;4.18;;
53519;SDS011;39397;53.204;5.778;2023-03-24T08:49:24;23.50;;;4.53;;
53519;SDS011;39397;53.204;5.778;2023-03-24T08:51:49;18.92;;;3.28;;
53519;SDS011;39397;53.204;5.778;2023-03-24T08:54:15;21.73;;;3.40;;
53519;SDS011;39397;53.204;5.778;2023-03-24T08:56:41;15.77;;;3.25;;
53519;SDS011;39397;53.204;5.778;2023-03-24T08:59:07;21.98;;;4.03;;
53519;SDS011;39397;53.204;5.778;2023-03-24T09:01:33;24.65;;;3.83;;
53519;SDS011;39397;53.204;5.778;2023-03-24T09:03:59;23.45;;;3.97;;
53519;SDS011;39397;53.204;5.778;2023-03-24T09:06:25;24.25;;;3.90;;
53519;SDS011;39397;53.204;5.778;2023-03-24T09:08:52;16.67;;;2.92;;
53519;SDS011;39397;53.204;5.778;2023-03-24T09:11:19;24.33;;;3.65;;
53519;SDS011;39397;53.204;5.778;2023-03-24T09:13:46;21.25;;;4.30;;
53519;SDS011;39397;53.204;5.778;2023-03-24T09:16:12;23.92;;;3.83;;
53519;SDS011;39397;53.204;5.778;2023-03-24T09:18:38;23.70;;;3.22;;
53519;SDS011;39397;53.204;5.778;2023-03-24T09:21:05;14.88;;;3.40;;
53519;SDS011;39397;53.204;5.778;2023-03-24T09:23:31;17.23;;;3.28;;
53519;SDS011;39397;53.204;5.778;2023-03-24T09:25:57;19.92;;;2.97;;
53519;SDS011;39397;53.204;5.778;2023-03-24T09:28:24;18.20;;;3.70;;
53519;SDS011;39397;53.204;5.778;2023-03-24T09:30:50;26.52;;;4.95;;
53519;SDS011;39397;53.204;5.778;2023-03-24T09:33:20;26.13;;;3.30;;
53519;SDS011;39397;53.204;5.778;2023-03-24T09:35:51;19.17;;;3.13;;
53519;SDS011;39397;53.204;5.778;2023-03-24T09:38:21;23.30;;;3.58;;
53519;SDS011;39397;53.204;5.778;2023-03-24T09:40:47;15.30;;;2.90;;
53519;SDS011;39397;53.204;5.778;2023-03-24T09:46:10;18.63;;;3.42;;
53519;SDS011;39397;53.204;5.778;2023-03-24T09:48:44;21.27;;;2.97;;
53519;SDS011;39397;53.204;5.778;2023-03-24T09:51:31;22.65;;;3.50;;
53519;SDS011;39397;53.204;5.778;2023-03-24T09:56:52;20.45;;;4.40;;
53519;SDS011;39397;53.204;5.778;2023-03-24T09:59:20;19.23;;;3.08;;
53519;SDS011;39397;53.204;5.778;2023-03-24T10:02:13;16.20;;;3.13;;
53519;SDS011;39397;53.204;5.778;2023-03-24T10:04:41;20.50;;;3.70;;
53519;SDS011;39397;53.204;5.778;2023-03-24T10:10:27;14.90;;;2.88;;
53519;SDS011;39397;53.204;5.778;2023-03-24T10:13:20;19.60;;;3.25;;
53519;SDS011;39397;53.204;5.778;2023-03-24T10:16:45;14.68;;;2.78;;
53519;SDS011;39397;53.204;5.778;2023-03-24T10:19:19;18.52;;;3.00;;
53519;SDS011;39397;53.204;5.778;2023-03-24T10:21:56;15.90;;;3.03;;
53519;SDS011;39397;53.204;5.778;2023-03-24T10:30:13;16.83;;;2.97;;
53519;SDS011;39397;53.204;5.778;2023-03-24T10:32:44;16.27;;;3.53;;
53519;SDS011;39397;53.204;5.778;2023-03-24T10:35:54;15.50;;;2.78;;
53519;SDS011;39397;53.204;5.778;2023-03-24T10:38:01;28.17;;;6.22;;
53519;SDS011;39397;53.204;5.778;2023-03-24T10:40:36;18.10;;;3.22;;
53519;SDS011;39397;53.204;5.778;2023-03-24T10:43:02;23.60;;;4.60;;
53519;SDS011;39397;53.204;5.778;2023-03-24T10:45:34;14.77;;;3.25;;
53519;SDS011;39397;53.204;5.778;2023-03-24T10:48:01;28.98;;;4.53;;
53519;SDS011;39397;53.204;5.778;2023-03-24T10:50:31;18.58;;;3.72;;
53519;SDS011;39397;53.204;5.778;2023-03-24T10:53:00;16.67;;;3.38;;
53519;SDS011;39397;53.204;5.778;2023-03-24T10:55:37;17.00;;;3.35;;
53519;SDS011;39397;53.204;5.778;2023-03-24T10:58:03;20.25;;;3.92;;
53519;SDS011;39397;53.204;5.778;2023-03-24T11:00:54;18.67;;;2.90;;
53519;SDS011;39397;53.204;5.778;2023-03-24T11:03:25;15.90;;;2.55;;
53519;SDS011;39397;53.204;5.778;2023-03-24T11:06:00;15.18;;;3.83;;
53519;SDS011;39397;53.204;5.778;2023-03-24T11:08:35;14.25;;;3.13;;
53519;SDS011;39397;53.204;5.778;2023-03-24T11:13:54;13.68;;;2.90;;
53519;SDS011;39397;53.204;5.778;2023-03-24T11:16:29;12.88;;;2.80;;
53519;SDS011;39397;53.204;5.778;2023-03-24T11:19:16;13.73;;;3.10;;
53519;SDS011;39397;53.204;5.778;2023-03-24T11:21:47;22.05;;;4.13;;
53519;SDS011;39397;53.204;5.778;2023-03-24T11:24:17;18.17;;;3.53;;
53519;SDS011;39397;53.204;5.778;2023-03-24T11:26:55;16.73;;;3.42;;
53519;SDS011;39397;53.204;5.778;2023-03-24T11:29:25;15.10;;;2.95;;
53519;SDS011;39397;53.204;5.778;2023-03-24T11:31:55;23.25;;;3.22;;
53519;SDS011;39397;53.204;5.778;2023-03-24T11:34:24;17.77;;;3.17;;
53519;SDS011;39397;53.204;5.778;2023-03-24T11:36:59;12.93;;;2.70;;
53519;SDS011;39397;53.204;5.778;2023-03-24T11:39:31;13.77;;;4.05;;
53519;SDS011;39397;53.204;5.778;2023-03-24T11:42:03;15.05;;;3.17;;
53519;SDS011;39397;53.204;5.778;2023-03-24T11:49:30;11.70;;;2.72;;
53519;SDS011;39397;53.204;5.778;2023-03-24T11:51:59;17.95;;;2.60;;
53519;SDS011;39397;53.204;5.778;2023-03-24T11:54:30;12.90;;;2.40;;
53519;SDS011;39397;53.204;5.778;2023-03-24T11:57:02;14.80;;;2.63;;
53519;SDS011;39397;53.204;5.778;2023-03-24T11:59:33;14.77;;;2.72;;
53519;SDS011;39397;53.204;5.778;2023-03-24T12:27:06;14.98;;;3.25;;
53519;SDS011;39397;53.204;5.778;2023-03-24T12:29:52;12.75;;;2.78;;
53519;SDS011;39397;53.204;5.778;2023-03-24T12:33:04;14.85;;;2.30;;
53519;SDS011;39397;53.204;5.778;2023-03-24T12:44:10;14.52;;;2.28;;
53519;SDS011;39397;53.204;5.778;2023-03-24T12:49:23;16.73;;;2.80;;
53519;SDS011;39397;53.204;5.778;2023-03-24T12:57:17;16.88;;;3.30;;
53519;SDS011;39397;53.204;5.778;2023-03-24T13:00:00;15.32;;;2.30;;
53519;SDS011;39397;53.204;5.778;2023-03-24T13:02:41;18.02;;;2.92;;
53519;SDS011;39397;53.204;5.778;2023-03-24T13:05:18;15.77;;;2.97;;
53519;SDS011;39397;53.204;5.778;2023-03-24T13:07:58;17.10;;;3.13;;
53519;SDS011;39397;53.204;5.778;2023-03-24T13:10:55;15.48;;;2.65;;
53519;SDS011;39397;53.204;5.778;2023-03-24T13:13:43;11.95;;;2.63;;
53519;SDS011;39397;53.204;5.778;2023-03-24T13:16:20;13.00;;;2.50;;
53519;SDS011;39397;53.204;5.778;2023-03-24T13:18:51;14.95;;;2.95;;
53519;SDS011;39397;53.204;5.778;2023-03-24T13:21:21;12.77;;;2.28;;
53519;SDS011;39397;53.204;5.778;2023-03-24T13:32:24;17.75;;;3.15;;
53519;SDS011;39397;53.204;5.778;2023-03-24T13:37:38;12.48;;;2.75;;
53519;SDS011;39397;53.204;5.778;2023-03-24T13:42:56;18.35;;;2.70;;
53519;SDS011;39397;53.204;5.778;2023-03-24T13:48:05;18.52;;;2.95;;
53519;SDS011;39397;53.204;5.778;2023-03-24T13:51:14;13.52;;;2.83;;
53519;SDS011;39397;53.204;5.778;2023-03-24T13:56:25;16.77;;;2.90;;
53519;SDS011;39397;53.204;5.778;2023-03-24T14:01:30;16.20;;;3.17;;
53519;SDS011;39397;53.204;5.778;2023-03-24T14:06:48;14.88;;;3.03;;
53519;SDS011;39397;53.204;5.778;2023-03-24T14:09:27;24.35;;;3.78;;
53519;SDS011;39397;53.204;5.778;2023-03-24T14:14:24;16.73;;;3.00;;
53519;SDS011;39397;53.204;5.778;2023-03-24T14:19:29;15.85;;;2.75;;
53519;SDS011;39397;53.204;5.778;2023-03-24T14:22:19;15.38;;;2.53;;
53519;SDS011;39397;53.204;5.778;2023-03-24T14:25:22;16.40;;;2.60;;
53519;SDS011;39397;53.204;5.778;2023-03-24T14:27:40;13.85;;;2.80;;
53519;SDS011;39397;53.204;5.778;2023-03-24T14:30:12;12.38;;;2.95;;
53519;SDS011;39397;53.204;5.778;2023-03-24T14:32:46;19.27;;;3.03;;
53519;SDS011;39397;53.204;5.778;2023-03-24T14:38:03;17.90;;;2.88;;
53519;SDS011;39397;53.204;5.778;2023-03-24T14:40:45;15.27;;;2.20;;
53519;SDS011;39397;53.204;5.778;2023-03-24T14:45:56;17.10;;;2.50;;
53519;SDS011;39397;53.204;5.778;2023-03-24T14:50:58;12.70;;;2.63;;
53519;SDS011;39397;53.204;5.778;2023-03-24T14:53:30;12.85;;;2.95;;
53519;SDS011;39397;53.204;5.778;2023-03-24T14:56:01;12.02;;;2.90;;
53519;SDS011;39397;53.204;5.778;2023-03-24T14:58:34;12.85;;;2.20;;
53519;SDS011;39397;53.204;5.778;2023-03-24T15:01:03;13.68;;;2.70;;
53519;SDS011;39397;53.204;5.778;2023-03-24T15:06:16;18.20;;;3.35;;
53519;SDS011;39397;53.204;5.778;2023-03-24T15:08:52;16.10;;;3.10;;
53519;SDS011;39397;53.204;5.778;2023-03-24T15:11:29;14.63;;;2.78;;
53519;SDS011;39397;53.204;5.778;2023-03-24T15:14:03;11.30;;;2.35;;
53519;SDS011;39397;53.204;5.778;2023-03-24T15:16:31;12.20;;;2.38;;
53519;SDS011;39397;53.204;5.778;2023-03-24T15:19:02;15.90;;;2.95;;
53519;SDS011;39397;53.204;5.778;2023-03-24T15:23:59;14.35;;;2.50;;
53519;SDS011;39397;53.204;5.778;2023-03-24T15:26:26;15.15;;;3.08;;
53519;SDS011;39397;53.204;5.778;2023-03-24T15:29:04;13.68;;;3.00;;
53519;SDS011;39397;53.204;5.778;2023-03-24T15:31:31;16.27;;;2.80;;
53519;SDS011;39397;53.204;5.778;2023-03-24T15:34:04;18.63;;;3.17;;
53519;SDS011;39397;53.204;5.778;2023-03-24T15:36:56;15.38;;;3.13;;
53519;SDS011;39397;53.204;5.778;2023-03-24T15:39:27;17.25;;;3.13;;
53519;SDS011;39397;53.204;5.778;2023-03-24T15:41:56;19.47;;;4.37;;
53519;SDS011;39397;53.204;5.778;2023-03-24T15:44:25;14.93;;;2.97;;
53519;SDS011;39397;53.204;5.778;2023-03-24T15:46:55;16.27;;;3.08;;
53519;SDS011;39397;53.204;5.778;2023-03-24T15:49:29;15.95;;;3.60;;
53519;SDS011;39397;53.204;5.778;2023-03-24T15:51:58;16.08;;;3.30;;
53519;SDS011;39397;53.204;5.778;2023-03-24T15:54:29;14.23;;;3.05;;
53519;SDS011;39397;53.204;5.778;2023-03-24T15:57:17;14.13;;;2.95;;
53519;SDS011;39397;53.204;5.778;2023-03-24T15:59:45;12.55;;;2.45;;
53519;SDS011;39397;53.204;5.778;2023-03-24T16:02:16;16.48;;;2.65;;
53519;SDS011;39397;53.204;5.778;2023-03-24T16:04:53;15.63;;;2.67;;
53519;SDS011;39397;53.204;5.778;2023-03-24T16:07:25;14.45;;;3.05;;
53519;SDS011;39397;53.204;5.778;2023-03-24T16:09:56;16.15;;;3.65;;
53519;SDS011;39397;53.204;5.778;2023-03-24T16:12:30;22.20;;;3.70;;
53519;SDS011;39397;53.204;5.778;2023-03-24T16:14:59;16.38;;;3.38;;
53519;SDS011;39397;53.204;5.778;2023-03-24T16:17:25;16.52;;;4.05;;
53519;SDS011;39397;53.204;5.778;2023-03-24T16:19:51;17.30;;;3.40;;
53519;SDS011;39397;53.204;5.778;2023-03-24T16:22:17;19.00;;;3.67;;
53519;SDS011;39397;53.204;5.778;2023-03-24T16:24:42;13.70;;;3.35;;
53519;SDS011;39397;53.204;5.778;2023-03-24T16:27:10;18.67;;;3.78;;
53519;SDS011;39397;53.204;5.778;2023-03-24T16:29:38;21.65;;;3.75;;
53519;SDS011;39397;53.204;5.778;2023-03-24T16:32:04;15.50;;;3.30;;
53519;SDS011;39397;53.204;5.778;2023-03-24T16:34:30;16.95;;;3.40;;
53519;SDS011;39397;53.204;5.778;2023-03-24T16:36:56;21.20;;;3.55;;
53519;SDS011;39397;53.204;5.778;2023-03-24T16:39:26;18.17;;;3.50;;
53519;SDS011;39397;53.204;5.778;2023-03-24T16:41:53;17.02;;;3.47;;
53519;SDS011;39397;53.204;5.778;2023-03-24T16:44:20;16.48;;;2.65;;
53519;SDS011;39397;53.204;5.778;2023-03-24T16:46:46;19.20;;;3.95;;
53519;SDS011;39397;53.204;5.778;2023-03-24T16:49:15;19.13;;;3.30;;
53519;SDS011;39397;53.204;5.778;2023-03-24T16:51:42;22.70;;;4.68;;
53519;SDS011;39397;53.204;5.778;2023-03-24T16:54:08;20.55;;;3.50;;
53519;SDS011;39397;53.204;5.778;2023-03-24T16:56:35;19.35;;;4.20;;
53519;SDS011;39397;53.204;5.778;2023-03-24T16:59:02;16.50;;;3.80;;
53519;SDS011;39397;53.204;5.778;2023-03-24T17:01:29;18.42;;;3.97;;
53519;SDS011;39397;53.204;5.778;2023-03-24T17:06:39;19.23;;;3.67;;
53519;SDS011;39397;53.204;5.778;2023-03-24T17:09:07;20.20;;;3.58;;
53519;SDS011;39397;53.204;5.778;2023-03-24T17:11:38;20.05;;;3.53;;
53519;SDS011;39397;53.204;5.778;2023-03-24T17:14:09;21.02;;;3.60;;
53519;SDS011;39397;53.204;5.778;2023-03-24T17:16:39;20.90;;;3.45;;
53519;SDS011;39397;53.204;5.778;2023-03-24T17:19:10;19.88;;;3.78;;
53519;SDS011;39397;53.204;5.778;2023-03-24T17:21:41;20.70;;;3.60;;
53519;SDS011;39397;53.204;5.778;2023-03-24T17:24:11;17.83;;;3.00;;
53519;SDS011;39397;53.204;5.778;2023-03-24T17:26:38;20.88;;;3.45;;
53519;SDS011;39397;53.204;5.778;2023-03-24T17:29:05;27.00;;;3.63;;
53519;SDS011;39397;53.204;5.778;2023-03-24T17:31:33;16.65;;;3.05;;
53519;SDS011;39397;53.204;5.778;2023-03-24T17:33:59;22.15;;;4.68;;
53519;SDS011;39397;53.204;5.778;2023-03-24T17:36:25;18.23;;;4.05;;
53519;SDS011;39397;53.204;5.778;2023-03-24T17:38:50;19.98;;;3.78;;
53519;SDS011;39397;53.204;5.778;2023-03-24T17:41:16;19.77;;;4.10;;
53519;SDS011;39397;53.204;5.778;2023-03-24T17:43:43;26.50;;;4.25;;
53519;SDS011;39397;53.204;5.778;2023-03-24T17:46:10;20.10;;;3.90;;
53519;SDS011;39397;53.204;5.778;2023-03-24T17:48:36;19.08;;;4.35;;